sensor_id;sensor_type;location;lat;lon;timestamp;P1;durP1;ratioP1;P2;durP2;ratioP2
16862;SDS011;52193;48.216;-1.698;2023-07-13T00:00:52;2.75;;;1.45;;
16862;SDS011;52193;48.216;-1.698;2023-07-13T00:03:21;2.30;;;1.30;;
16862;SDS011;52193;48.216;-1.698;2023-07-13T00:05:56;2.28;;;1.52;;
16862;SDS011;52193;48.216;-1.698;2023-07-13T00:08:24;2.28;;;1.48;;
16862;SDS011;52193;48.216;-1.698;2023-07-13T00:10:51;2.08;;;1.50;;
16862;SDS011;52193;48.216;-1.698;2023-07-13T00:13:19;1.90;;;1.42;;
16862;SDS011;52193;48.216;-1.698;2023-07-13T00:15:46;3.45;;;1.90;;
16862;SDS011;52193;48.216;-1.698;2023-07-13T00:18:13;2.58;;;1.45;;
16862;SDS011;52193;48.216;-1.698;2023-07-13T00:20:41;2.38;;;1.58;;
16862;SDS011;52193;48.216;-1.698;2023-07-13T00:23:09;3.47;;;1.63;;
16862;SDS011;52193;48.216;-1.698;2023-07-13T00:25:35;3.92;;;1.70;;
16862;SDS011;52193;48.216;-1.698;2023-07-13T00:28:02;2.20;;;1.40;;
16862;SDS011;52193;48.216;-1.698;2023-07-13T00:30:30;4.28;;;2.30;;
16862;SDS011;52193;48.216;-1.698;2023-07-13T00:32:57;3.30;;;1.55;;
16862;SDS011;52193;48.216;-1.698;2023-07-13T00:35:26;3.58;;;1.73;;
16862;SDS011;52193;48.216;-1.698;2023-07-13T00:37:57;2.40;;;1.42;;
16862;SDS011;52193;48.216;-1.698;2023-07-13T00:40:24;3.10;;;1.65;;
16862;SDS011;52193;48.216;-1.698;2023-07-13T00:42:51;3.03;;;1.75;;
16862;SDS011;52193;48.216;-1.698;2023-07-13T00:48:34;2.67;;;1.80;;
16862;SDS011;52193;48.216;-1.698;2023-07-13T00:51:03;2.38;;;1.50;;
16862;SDS011;52193;48.216;-1.698;2023-07-13T00:53:32;2.58;;;1.52;;
16862;SDS011;52193;48.216;-1.698;2023-07-13T00:56:00;2.33;;;1.55;;
16862;SDS011;52193;48.216;-1.698;2023-07-13T00:58:27;3.58;;;2.10;;
16862;SDS011;52193;48.216;-1.698;2023-07-13T01:00:55;2.65;;;1.70;;
16862;SDS011;52193;48.216;-1.698;2023-07-13T01:03:22;2.72;;;1.65;;
16862;SDS011;52193;48.216;-1.698;2023-07-13T01:05:49;3.95;;;1.95;;
16862;SDS011;52193;48.216;-1.698;2023-07-13T01:08:18;4.00;;;1.70;;
16862;SDS011;52193;48.216;-1.698;2023-07-13T01:10:54;3.85;;;1.77;;
16862;SDS011;52193;48.216;-1.698;2023-07-13T01:13:23;2.38;;;1.58;;
16862;SDS011;52193;48.216;-1.698;2023-07-13T01:15:51;3.60;;;1.73;;
16862;SDS011;52193;48.216;-1.698;2023-07-13T01:18:20;2.65;;;1.63;;
16862;SDS011;52193;48.216;-1.698;2023-07-13T01:20:54;2.55;;;1.60;;
16862;SDS011;52193;48.216;-1.698;2023-07-13T01:23:23;2.53;;;1.50;;
16862;SDS011;52193;48.216;-1.698;2023-07-13T01:25:51;2.72;;;1.70;;
16862;SDS011;52193;48.216;-1.698;2023-07-13T01:28:18;3.17;;;1.73;;
16862;SDS011;52193;48.216;-1.698;2023-07-13T01:30:46;1.95;;;1.52;;
16862;SDS011;52193;48.216;-1.698;2023-07-13T01:33:13;2.58;;;1.60;;
16862;SDS011;52193;48.216;-1.698;2023-07-13T01:35:42;3.03;;;1.52;;
16862;SDS011;52193;48.216;-1.698;2023-07-13T01:38:13;2.75;;;1.40;;
16862;SDS011;52193;48.216;-1.698;2023-07-13T01:40:41;5.97;;;2.00;;
16862;SDS011;52193;48.216;-1.698;2023-07-13T01:43:08;3.72;;;2.10;;
16862;SDS011;52193;48.216;-1.698;2023-07-13T01:45:36;3.13;;;1.73;;
16862;SDS011;52193;48.216;-1.698;2023-07-13T01:48:03;2.47;;;1.23;;
16862;SDS011;52193;48.216;-1.698;2023-07-13T01:50:31;2.83;;;1.63;;
16862;SDS011;52193;48.216;-1.698;2023-07-13T01:52:58;2.72;;;1.50;;
16862;SDS011;52193;48.216;-1.698;2023-07-13T01:55:27;4.93;;;1.70;;
16862;SDS011;52193;48.216;-1.698;2023-07-13T01:57:54;1.75;;;1.30;;
16862;SDS011;52193;48.216;-1.698;2023-07-13T02:00:21;2.88;;;1.83;;
16862;SDS011;52193;48.216;-1.698;2023-07-13T02:02:48;2.30;;;1.70;;
16862;SDS011;52193;48.216;-1.698;2023-07-13T02:05:15;1.60;;;1.30;;
16862;SDS011;52193;48.216;-1.698;2023-07-13T02:07:42;2.25;;;1.77;;
16862;SDS011;52193;48.216;-1.698;2023-07-13T02:10:09;2.53;;;1.60;;
16862;SDS011;52193;48.216;-1.698;2023-07-13T02:12:39;2.38;;;1.70;;
16862;SDS011;52193;48.216;-1.698;2023-07-13T02:15:07;5.22;;;2.17;;
16862;SDS011;52193;48.216;-1.698;2023-07-13T02:17:35;4.00;;;1.88;;
16862;SDS011;52193;48.216;-1.698;2023-07-13T02:20:03;2.13;;;1.50;;
16862;SDS011;52193;48.216;-1.698;2023-07-13T02:22:31;2.40;;;1.60;;
16862;SDS011;52193;48.216;-1.698;2023-07-13T02:24:58;2.42;;;1.48;;
16862;SDS011;52193;48.216;-1.698;2023-07-13T02:27:25;3.38;;;1.98;;
16862;SDS011;52193;48.216;-1.698;2023-07-13T02:29:53;2.92;;;1.42;;
16862;SDS011;52193;48.216;-1.698;2023-07-13T02:32:20;2.17;;;1.80;;
16862;SDS011;52193;48.216;-1.698;2023-07-13T02:34:50;3.97;;;1.58;;
16862;SDS011;52193;48.216;-1.698;2023-07-13T02:37:17;4.72;;;1.85;;
16862;SDS011;52193;48.216;-1.698;2023-07-13T02:39:44;3.38;;;1.88;;
16862;SDS011;52193;48.216;-1.698;2023-07-13T02:42:11;3.53;;;1.83;;
16862;SDS011;52193;48.216;-1.698;2023-07-13T02:44:38;2.55;;;1.70;;
16862;SDS011;52193;48.216;-1.698;2023-07-13T02:47:06;2.33;;;1.40;;
16862;SDS011;52193;48.216;-1.698;2023-07-13T02:49:33;1.60;;;1.50;;
16862;SDS011;52193;48.216;-1.698;2023-07-13T02:52:01;3.15;;;1.73;;
16862;SDS011;52193;48.216;-1.698;2023-07-13T02:54:28;4.82;;;2.20;;
16862;SDS011;52193;48.216;-1.698;2023-07-13T02:56:55;3.63;;;2.03;;
16862;SDS011;52193;48.216;-1.698;2023-07-13T02:59:22;2.42;;;1.80;;
16862;SDS011;52193;48.216;-1.698;2023-07-13T03:01:49;3.42;;;1.63;;
16862;SDS011;52193;48.216;-1.698;2023-07-13T03:04:18;4.13;;;1.75;;
16862;SDS011;52193;48.216;-1.698;2023-07-13T03:06:45;2.40;;;1.90;;
16862;SDS011;52193;48.216;-1.698;2023-07-13T03:09:12;2.70;;;1.90;;
16862;SDS011;52193;48.216;-1.698;2023-07-13T03:11:39;3.63;;;1.80;;
16862;SDS011;52193;48.216;-1.698;2023-07-13T03:14:07;2.92;;;1.90;;
16862;SDS011;52193;48.216;-1.698;2023-07-13T03:16:34;5.03;;;2.05;;
16862;SDS011;52193;48.216;-1.698;2023-07-13T03:19:01;3.17;;;1.60;;
16862;SDS011;52193;48.216;-1.698;2023-07-13T03:21:29;3.55;;;2.10;;
16862;SDS011;52193;48.216;-1.698;2023-07-13T03:23:56;3.38;;;1.80;;
16862;SDS011;52193;48.216;-1.698;2023-07-13T03:26:23;3.75;;;1.90;;
16862;SDS011;52193;48.216;-1.698;2023-07-13T03:28:50;5.38;;;2.58;;
16862;SDS011;52193;48.216;-1.698;2023-07-13T03:31:18;9.35;;;1.88;;
16862;SDS011;52193;48.216;-1.698;2023-07-13T03:33:47;3.72;;;2.08;;
16862;SDS011;52193;48.216;-1.698;2023-07-13T03:36:15;3.90;;;2.00;;
16862;SDS011;52193;48.216;-1.698;2023-07-13T03:38:47;5.65;;;2.15;;
16862;SDS011;52193;48.216;-1.698;2023-07-13T03:41:15;3.03;;;1.60;;
16862;SDS011;52193;48.216;-1.698;2023-07-13T03:43:42;4.50;;;2.00;;
16862;SDS011;52193;48.216;-1.698;2023-07-13T03:46:09;3.58;;;2.20;;
16862;SDS011;52193;48.216;-1.698;2023-07-13T03:48:36;3.53;;;1.90;;
16862;SDS011;52193;48.216;-1.698;2023-07-13T03:51:05;2.95;;;2.00;;
16862;SDS011;52193;48.216;-1.698;2023-07-13T03:53:32;4.00;;;2.30;;
16862;SDS011;52193;48.216;-1.698;2023-07-13T03:56:00;3.10;;;2.33;;
16862;SDS011;52193;48.216;-1.698;2023-07-13T03:58:29;4.05;;;2.20;;
16862;SDS011;52193;48.216;-1.698;2023-07-13T04:00:57;3.60;;;2.80;;
16862;SDS011;52193;48.216;-1.698;2023-07-13T04:03:25;5.38;;;3.30;;
16862;SDS011;52193;48.216;-1.698;2023-07-13T04:05:54;5.13;;;3.25;;
16862;SDS011;52193;48.216;-1.698;2023-07-13T04:08:24;6.00;;;3.60;;
16862;SDS011;52193;48.216;-1.698;2023-07-13T04:10:50;3.80;;;3.08;;
16862;SDS011;52193;48.216;-1.698;2023-07-13T04:13:19;4.60;;;3.40;;
16862;SDS011;52193;48.216;-1.698;2023-07-13T04:15:46;5.35;;;3.45;;
16862;SDS011;52193;48.216;-1.698;2023-07-13T04:18:13;4.28;;;3.10;;
16862;SDS011;52193;48.216;-1.698;2023-07-13T04:20:39;5.00;;;3.28;;
16862;SDS011;52193;48.216;-1.698;2023-07-13T04:23:06;3.97;;;2.50;;
16862;SDS011;52193;48.216;-1.698;2023-07-13T04:25:33;4.57;;;2.80;;
16862;SDS011;52193;48.216;-1.698;2023-07-13T04:28:00;2.92;;;2.35;;
16862;SDS011;52193;48.216;-1.698;2023-07-13T04:30:30;5.90;;;2.40;;
16862;SDS011;52193;48.216;-1.698;2023-07-13T04:32:57;3.10;;;2.28;;
16862;SDS011;52193;48.216;-1.698;2023-07-13T04:35:24;4.05;;;2.47;;
16862;SDS011;52193;48.216;-1.698;2023-07-13T04:37:51;4.55;;;2.55;;
16862;SDS011;52193;48.216;-1.698;2023-07-13T04:40:18;3.20;;;2.03;;
16862;SDS011;52193;48.216;-1.698;2023-07-13T04:42:46;3.50;;;2.20;;
16862;SDS011;52193;48.216;-1.698;2023-07-13T04:45:13;3.00;;;2.30;;
16862;SDS011;52193;48.216;-1.698;2023-07-13T04:47:42;4.55;;;2.17;;
16862;SDS011;52193;48.216;-1.698;2023-07-13T04:50:09;2.58;;;2.05;;
16862;SDS011;52193;48.216;-1.698;2023-07-13T04:52:40;3.35;;;2.00;;
16862;SDS011;52193;48.216;-1.698;2023-07-13T04:55:07;2.80;;;1.95;;
16862;SDS011;52193;48.216;-1.698;2023-07-13T04:57:34;2.30;;;2.10;;
16862;SDS011;52193;48.216;-1.698;2023-07-13T05:00:02;2.60;;;1.88;;
16862;SDS011;52193;48.216;-1.698;2023-07-13T05:02:32;3.38;;;2.35;;
16862;SDS011;52193;48.216;-1.698;2023-07-13T05:05:01;4.10;;;2.30;;
16862;SDS011;52193;48.216;-1.698;2023-07-13T05:07:28;3.72;;;2.40;;
16862;SDS011;52193;48.216;-1.698;2023-07-13T05:09:57;3.70;;;2.13;;
16862;SDS011;52193;48.216;-1.698;2023-07-13T05:12:24;5.47;;;2.70;;
16862;SDS011;52193;48.216;-1.698;2023-07-13T05:14:51;4.18;;;2.00;;
16862;SDS011;52193;48.216;-1.698;2023-07-13T05:17:19;3.17;;;1.92;;
16862;SDS011;52193;48.216;-1.698;2023-07-13T05:19:45;4.03;;;1.92;;
16862;SDS011;52193;48.216;-1.698;2023-07-13T05:22:14;4.95;;;2.55;;
16862;SDS011;52193;48.216;-1.698;2023-07-13T05:24:41;3.53;;;2.10;;
16862;SDS011;52193;48.216;-1.698;2023-07-13T05:27:07;2.78;;;2.08;;
16862;SDS011;52193;48.216;-1.698;2023-07-13T05:29:34;4.13;;;2.08;;
16862;SDS011;52193;48.216;-1.698;2023-07-13T05:32:01;4.82;;;2.13;;
16862;SDS011;52193;48.216;-1.698;2023-07-13T05:34:29;3.85;;;2.38;;
16862;SDS011;52193;48.216;-1.698;2023-07-13T05:36:56;3.05;;;1.98;;
16862;SDS011;52193;48.216;-1.698;2023-07-13T05:39:24;2.88;;;2.00;;
16862;SDS011;52193;48.216;-1.698;2023-07-13T05:41:52;2.67;;;1.85;;
16862;SDS011;52193;48.216;-1.698;2023-07-13T05:44:19;3.38;;;2.00;;
16862;SDS011;52193;48.216;-1.698;2023-07-13T05:46:46;4.32;;;2.40;;
16862;SDS011;52193;48.216;-1.698;2023-07-13T05:49:13;4.50;;;2.38;;
16862;SDS011;52193;48.216;-1.698;2023-07-13T05:51:40;3.35;;;2.08;;
16862;SDS011;52193;48.216;-1.698;2023-07-13T05:54:07;3.13;;;1.90;;
16862;SDS011;52193;48.216;-1.698;2023-07-13T05:56:36;3.70;;;2.25;;
16862;SDS011;52193;48.216;-1.698;2023-07-13T05:59:02;3.10;;;2.05;;
16862;SDS011;52193;48.216;-1.698;2023-07-13T06:01:30;2.70;;;2.05;;
16862;SDS011;52193;48.216;-1.698;2023-07-13T06:03:57;4.90;;;2.40;;
16862;SDS011;52193;48.216;-1.698;2023-07-13T06:06:24;3.35;;;2.22;;
16862;SDS011;52193;48.216;-1.698;2023-07-13T06:08:51;4.25;;;2.40;;
16862;SDS011;52193;48.216;-1.698;2023-07-13T06:11:18;4.22;;;2.42;;
16862;SDS011;52193;48.216;-1.698;2023-07-13T06:13:48;4.88;;;2.35;;
16862;SDS011;52193;48.216;-1.698;2023-07-13T06:16:15;7.40;;;2.78;;
16862;SDS011;52193;48.216;-1.698;2023-07-13T06:18:42;2.88;;;1.90;;
16862;SDS011;52193;48.216;-1.698;2023-07-13T06:21:11;5.50;;;2.40;;
16862;SDS011;52193;48.216;-1.698;2023-07-13T06:23:39;6.10;;;3.00;;
16862;SDS011;52193;48.216;-1.698;2023-07-13T06:26:07;4.45;;;2.50;;
16862;SDS011;52193;48.216;-1.698;2023-07-13T06:28:35;5.95;;;2.22;;
16862;SDS011;52193;48.216;-1.698;2023-07-13T06:31:05;4.63;;;2.30;;
16862;SDS011;52193;48.216;-1.698;2023-07-13T06:33:33;3.95;;;2.50;;
16862;SDS011;52193;48.216;-1.698;2023-07-13T06:36:00;5.15;;;2.38;;
16862;SDS011;52193;48.216;-1.698;2023-07-13T06:38:28;4.85;;;2.65;;
16862;SDS011;52193;48.216;-1.698;2023-07-13T06:40:55;5.03;;;2.35;;
16862;SDS011;52193;48.216;-1.698;2023-07-13T06:43:22;3.35;;;2.20;;
16862;SDS011;52193;48.216;-1.698;2023-07-13T06:45:50;2.97;;;1.90;;
16862;SDS011;52193;48.216;-1.698;2023-07-13T06:48:18;3.90;;;2.10;;
16862;SDS011;52193;48.216;-1.698;2023-07-13T06:50:48;4.72;;;2.63;;
16862;SDS011;52193;48.216;-1.698;2023-07-13T06:53:17;3.08;;;2.35;;
16862;SDS011;52193;48.216;-1.698;2023-07-13T06:55:44;2.30;;;2.10;;
16862;SDS011;52193;48.216;-1.698;2023-07-13T06:58:11;3.90;;;2.75;;
16862;SDS011;52193;48.216;-1.698;2023-07-13T07:00:39;3.38;;;2.28;;
16862;SDS011;52193;48.216;-1.698;2023-07-13T07:03:06;6.07;;;2.55;;
16862;SDS011;52193;48.216;-1.698;2023-07-13T07:05:34;4.43;;;2.40;;
16862;SDS011;52193;48.216;-1.698;2023-07-13T07:08:01;3.50;;;2.20;;
16862;SDS011;52193;48.216;-1.698;2023-07-13T07:10:29;6.53;;;2.70;;
16862;SDS011;52193;48.216;-1.698;2023-07-13T07:12:56;5.20;;;2.58;;
16862;SDS011;52193;48.216;-1.698;2023-07-13T07:15:23;3.40;;;2.08;;
16862;SDS011;52193;48.216;-1.698;2023-07-13T07:17:51;2.63;;;2.10;;
16862;SDS011;52193;48.216;-1.698;2023-07-13T07:20:18;3.70;;;2.50;;
16862;SDS011;52193;48.216;-1.698;2023-07-13T07:22:46;4.00;;;2.45;;
16862;SDS011;52193;48.216;-1.698;2023-07-13T07:25:14;2.88;;;2.13;;
16862;SDS011;52193;48.216;-1.698;2023-07-13T07:27:41;3.35;;;2.28;;
16862;SDS011;52193;48.216;-1.698;2023-07-13T07:30:08;4.78;;;2.53;;
16862;SDS011;52193;48.216;-1.698;2023-07-13T07:32:35;3.78;;;2.17;;
16862;SDS011;52193;48.216;-1.698;2023-07-13T07:35:02;4.63;;;2.58;;
16862;SDS011;52193;48.216;-1.698;2023-07-13T07:37:29;3.25;;;2.28;;
16862;SDS011;52193;48.216;-1.698;2023-07-13T07:39:58;4.05;;;2.20;;
16862;SDS011;52193;48.216;-1.698;2023-07-13T07:42:25;4.10;;;2.55;;
16862;SDS011;52193;48.216;-1.698;2023-07-13T07:44:52;3.97;;;2.40;;
16862;SDS011;52193;48.216;-1.698;2023-07-13T07:47:19;4.13;;;2.40;;
16862;SDS011;52193;48.216;-1.698;2023-07-13T07:49:48;2.97;;;2.38;;
16862;SDS011;52193;48.216;-1.698;2023-07-13T07:52:15;3.78;;;2.20;;
16862;SDS011;52193;48.216;-1.698;2023-07-13T07:54:42;3.67;;;2.20;;
16862;SDS011;52193;48.216;-1.698;2023-07-13T07:57:10;2.15;;;1.67;;
16862;SDS011;52193;48.216;-1.698;2023-07-13T07:59:37;1.90;;;1.67;;
16862;SDS011;52193;48.216;-1.698;2023-07-13T08:02:04;2.88;;;2.00;;
16862;SDS011;52193;48.216;-1.698;2023-07-13T08:04:32;3.15;;;2.08;;
16862;SDS011;52193;48.216;-1.698;2023-07-13T08:06:59;3.65;;;2.28;;
16862;SDS011;52193;48.216;-1.698;2023-07-13T08:09:27;2.70;;;1.85;;
16862;SDS011;52193;48.216;-1.698;2023-07-13T08:11:55;3.95;;;2.55;;
16862;SDS011;52193;48.216;-1.698;2023-07-13T08:14:23;2.88;;;1.80;;
16862;SDS011;52193;48.216;-1.698;2023-07-13T08:16:50;3.72;;;2.08;;
16862;SDS011;52193;48.216;-1.698;2023-07-13T08:19:17;2.80;;;2.13;;
16862;SDS011;52193;48.216;-1.698;2023-07-13T08:21:44;3.67;;;1.85;;
16862;SDS011;52193;48.216;-1.698;2023-07-13T08:24:13;3.50;;;1.88;;
16862;SDS011;52193;48.216;-1.698;2023-07-13T08:26:40;3.75;;;2.20;;
16862;SDS011;52193;48.216;-1.698;2023-07-13T08:29:07;3.90;;;1.88;;
16862;SDS011;52193;48.216;-1.698;2023-07-13T08:31:35;3.97;;;2.10;;
16862;SDS011;52193;48.216;-1.698;2023-07-13T08:34:02;2.80;;;1.80;;
16862;SDS011;52193;48.216;-1.698;2023-07-13T08:36:29;5.20;;;2.30;;
16862;SDS011;52193;48.216;-1.698;2023-07-13T08:38:56;3.42;;;2.20;;
16862;SDS011;52193;48.216;-1.698;2023-07-13T08:41:23;3.03;;;2.00;;
16862;SDS011;52193;48.216;-1.698;2023-07-13T08:43:51;3.78;;;2.00;;
16862;SDS011;52193;48.216;-1.698;2023-07-13T08:46:28;4.00;;;1.90;;
16862;SDS011;52193;48.216;-1.698;2023-07-13T08:49:03;4.90;;;2.42;;
16862;SDS011;52193;48.216;-1.698;2023-07-13T08:51:33;3.28;;;1.92;;
16862;SDS011;52193;48.216;-1.698;2023-07-13T08:54:10;3.78;;;1.90;;
16862;SDS011;52193;48.216;-1.698;2023-07-13T08:56:43;3.72;;;2.10;;
16862;SDS011;52193;48.216;-1.698;2023-07-13T08:59:11;3.53;;;2.00;;
16862;SDS011;52193;48.216;-1.698;2023-07-13T09:01:58;2.53;;;1.77;;
16862;SDS011;52193;48.216;-1.698;2023-07-13T09:04:37;3.60;;;2.10;;
16862;SDS011;52193;48.216;-1.698;2023-07-13T09:07:12;4.03;;;2.00;;
16862;SDS011;52193;48.216;-1.698;2023-07-13T09:09:51;2.20;;;1.70;;
16862;SDS011;52193;48.216;-1.698;2023-07-13T09:12:31;1.40;;;1.30;;
16862;SDS011;52193;48.216;-1.698;2023-07-13T09:15:02;3.10;;;1.55;;
16862;SDS011;52193;48.216;-1.698;2023-07-13T09:17:32;4.13;;;2.00;;
16862;SDS011;52193;48.216;-1.698;2023-07-13T09:20:09;2.08;;;1.77;;
16862;SDS011;52193;48.216;-1.698;2023-07-13T09:22:43;3.15;;;1.73;;
16862;SDS011;52193;48.216;-1.698;2023-07-13T09:25:13;2.28;;;1.60;;
16862;SDS011;52193;48.216;-1.698;2023-07-13T09:27:49;1.98;;;1.30;;
16862;SDS011;52193;48.216;-1.698;2023-07-13T09:30:24;2.55;;;1.60;;
16862;SDS011;52193;48.216;-1.698;2023-07-13T09:32:56;2.63;;;1.58;;
16862;SDS011;52193;48.216;-1.698;2023-07-13T09:35:26;3.97;;;1.90;;
16862;SDS011;52193;48.216;-1.698;2023-07-13T09:37:57;2.17;;;1.60;;
16862;SDS011;52193;48.216;-1.698;2023-07-13T09:40:28;2.38;;;1.45;;
16862;SDS011;52193;48.216;-1.698;2023-07-13T09:43:07;1.58;;;1.48;;
16862;SDS011;52193;48.216;-1.698;2023-07-13T09:45:37;1.50;;;1.40;;
16862;SDS011;52193;48.216;-1.698;2023-07-13T09:48:05;2.13;;;1.58;;
16862;SDS011;52193;48.216;-1.698;2023-07-13T09:50:35;1.73;;;1.63;;
16862;SDS011;52193;48.216;-1.698;2023-07-13T09:53:02;1.80;;;1.70;;
16862;SDS011;52193;48.216;-1.698;2023-07-13T09:55:30;2.70;;;1.65;;
16862;SDS011;52193;48.216;-1.698;2023-07-13T09:58:02;1.70;;;1.50;;
16862;SDS011;52193;48.216;-1.698;2023-07-13T10:00:31;3.33;;;1.42;;
16862;SDS011;52193;48.216;-1.698;2023-07-13T10:02:59;1.42;;;1.33;;
16862;SDS011;52193;48.216;-1.698;2023-07-13T10:05:38;2.25;;;1.63;;
16862;SDS011;52193;48.216;-1.698;2023-07-13T10:08:09;2.38;;;1.58;;
16862;SDS011;52193;48.216;-1.698;2023-07-13T10:10:43;1.80;;;1.55;;
16862;SDS011;52193;48.216;-1.698;2023-07-13T10:13:21;1.58;;;1.48;;
16862;SDS011;52193;48.216;-1.698;2023-07-13T10:15:56;3.25;;;1.67;;
16862;SDS011;52193;48.216;-1.698;2023-07-13T10:18:25;2.13;;;1.70;;
16862;SDS011;52193;48.216;-1.698;2023-07-13T10:20:55;3.10;;;1.90;;
16862;SDS011;52193;48.216;-1.698;2023-07-13T10:23:35;2.15;;;1.67;;
16862;SDS011;52193;48.216;-1.698;2023-07-13T10:26:02;2.17;;;1.98;;
16862;SDS011;52193;48.216;-1.698;2023-07-13T10:28:31;1.80;;;1.70;;
16862;SDS011;52193;48.216;-1.698;2023-07-13T10:31:02;2.42;;;1.98;;
16862;SDS011;52193;48.216;-1.698;2023-07-13T10:33:37;2.58;;;1.63;;
16862;SDS011;52193;48.216;-1.698;2023-07-13T10:36:22;2.10;;;1.80;;
16862;SDS011;52193;48.216;-1.698;2023-07-13T10:38:55;1.40;;;1.30;;
16862;SDS011;52193;48.216;-1.698;2023-07-13T10:41:24;1.70;;;1.60;;
16862;SDS011;52193;48.216;-1.698;2023-07-13T10:43:54;1.70;;;1.60;;
16862;SDS011;52193;48.216;-1.698;2023-07-13T10:46:23;1.75;;;1.50;;
16862;SDS011;52193;48.216;-1.698;2023-07-13T10:48:54;1.70;;;1.60;;
16862;SDS011;52193;48.216;-1.698;2023-07-13T10:51:25;2.00;;;1.60;;
16862;SDS011;52193;48.216;-1.698;2023-07-13T10:54:15;3.40;;;1.73;;
16862;SDS011;52193;48.216;-1.698;2023-07-13T10:56:44;2.42;;;1.50;;
16862;SDS011;52193;48.216;-1.698;2023-07-13T10:59:13;1.90;;;1.67;;
16862;SDS011;52193;48.216;-1.698;2023-07-13T11:01:50;1.60;;;1.50;;
16862;SDS011;52193;48.216;-1.698;2023-07-13T11:04:21;1.95;;;1.58;;
16862;SDS011;52193;48.216;-1.698;2023-07-13T11:06:52;1.52;;;1.42;;
16862;SDS011;52193;48.216;-1.698;2023-07-13T11:09:35;1.80;;;1.60;;
16862;SDS011;52193;48.216;-1.698;2023-07-13T11:12:08;2.08;;;1.70;;
16862;SDS011;52193;48.216;-1.698;2023-07-13T11:17:48;2.38;;;1.70;;
16862;SDS011;52193;48.216;-1.698;2023-07-13T11:23:17;2.20;;;1.98;;
16862;SDS011;52193;48.216;-1.698;2023-07-13T11:25:56;1.60;;;1.50;;
16862;SDS011;52193;48.216;-1.698;2023-07-13T11:28:25;1.50;;;1.40;;
16862;SDS011;52193;48.216;-1.698;2023-07-13T11:33:52;1.95;;;1.60;;
16862;SDS011;52193;48.216;-1.698;2023-07-13T11:36:24;1.50;;;1.40;;
16862;SDS011;52193;48.216;-1.698;2023-07-13T11:38:59;2.90;;;2.10;;
16862;SDS011;52193;48.216;-1.698;2023-07-13T11:41:31;2.58;;;1.67;;
16862;SDS011;52193;48.216;-1.698;2023-07-13T11:44:04;1.70;;;1.60;;
16862;SDS011;52193;48.216;-1.698;2023-07-13T11:46:33;2.40;;;1.70;;
16862;SDS011;52193;48.216;-1.698;2023-07-13T11:49:00;1.73;;;1.63;;
16862;SDS011;52193;48.216;-1.698;2023-07-13T11:51:28;1.90;;;1.77;;
16862;SDS011;52193;48.216;-1.698;2023-07-13T11:54:13;2.05;;;1.50;;
16862;SDS011;52193;48.216;-1.698;2023-07-13T11:56:48;1.52;;;1.42;;
16862;SDS011;52193;48.216;-1.698;2023-07-13T11:59:15;1.70;;;1.60;;
16862;SDS011;52193;48.216;-1.698;2023-07-13T12:01:45;1.60;;;1.50;;
16862;SDS011;52193;48.216;-1.698;2023-07-13T12:04:20;2.33;;;1.60;;
16862;SDS011;52193;48.216;-1.698;2023-07-13T12:06:54;2.25;;;1.80;;
16862;SDS011;52193;48.216;-1.698;2023-07-13T12:09:25;2.15;;;1.70;;
16862;SDS011;52193;48.216;-1.698;2023-07-13T12:11:56;2.05;;;1.60;;
16862;SDS011;52193;48.216;-1.698;2023-07-13T12:14:25;1.90;;;1.70;;
16862;SDS011;52193;48.216;-1.698;2023-07-13T12:16:52;2.72;;;1.83;;
16862;SDS011;52193;48.216;-1.698;2023-07-13T12:19:20;6.65;;;2.00;;
16862;SDS011;52193;48.216;-1.698;2023-07-13T12:21:49;2.78;;;1.92;;
16862;SDS011;52193;48.216;-1.698;2023-07-13T12:24:19;2.13;;;1.70;;
16862;SDS011;52193;48.216;-1.698;2023-07-13T12:26:51;2.75;;;1.80;;
16862;SDS011;52193;48.216;-1.698;2023-07-13T12:29:19;1.50;;;1.40;;
16862;SDS011;52193;48.216;-1.698;2023-07-13T12:31:47;1.92;;;1.77;;
16862;SDS011;52193;48.216;-1.698;2023-07-13T12:34:18;2.88;;;1.65;;
16862;SDS011;52193;48.216;-1.698;2023-07-13T12:36:46;1.67;;;1.58;;
16862;SDS011;52193;48.216;-1.698;2023-07-13T12:39:16;2.72;;;1.67;;
16862;SDS011;52193;48.216;-1.698;2023-07-13T12:41:45;1.98;;;1.80;;
16862;SDS011;52193;48.216;-1.698;2023-07-13T12:44:14;2.53;;;1.90;;
16862;SDS011;52193;48.216;-1.698;2023-07-13T12:49:32;3.03;;;2.10;;
16862;SDS011;52193;48.216;-1.698;2023-07-13T12:52:01;2.53;;;2.05;;
16862;SDS011;52193;48.216;-1.698;2023-07-13T12:54:30;2.17;;;1.90;;
16862;SDS011;52193;48.216;-1.698;2023-07-13T12:56:58;2.85;;;2.10;;
16862;SDS011;52193;48.216;-1.698;2023-07-13T12:59:31;2.45;;;1.98;;
16862;SDS011;52193;48.216;-1.698;2023-07-13T13:02:02;2.67;;;2.10;;
16862;SDS011;52193;48.216;-1.698;2023-07-13T13:04:47;3.70;;;2.10;;
16862;SDS011;52193;48.216;-1.698;2023-07-13T13:07:14;4.07;;;2.22;;
16862;SDS011;52193;48.216;-1.698;2023-07-13T13:09:42;2.92;;;1.90;;
16862;SDS011;52193;48.216;-1.698;2023-07-13T13:12:09;2.13;;;1.83;;
16862;SDS011;52193;48.216;-1.698;2023-07-13T13:14:38;2.33;;;1.80;;
16862;SDS011;52193;48.216;-1.698;2023-07-13T13:17:07;3.05;;;2.30;;
16862;SDS011;52193;48.216;-1.698;2023-07-13T13:19:45;2.53;;;1.80;;
16862;SDS011;52193;48.216;-1.698;2023-07-13T13:22:12;3.70;;;2.40;;
16862;SDS011;52193;48.216;-1.698;2023-07-13T13:24:39;2.63;;;1.77;;
16862;SDS011;52193;48.216;-1.698;2023-07-13T13:27:08;3.28;;;2.00;;
16862;SDS011;52193;48.216;-1.698;2023-07-13T13:29:43;4.10;;;2.15;;
16862;SDS011;52193;48.216;-1.698;2023-07-13T13:32:11;2.03;;;1.83;;
16862;SDS011;52193;48.216;-1.698;2023-07-13T13:34:39;2.28;;;2.00;;
16862;SDS011;52193;48.216;-1.698;2023-07-13T13:37:10;2.90;;;1.85;;
16862;SDS011;52193;48.216;-1.698;2023-07-13T13:39:46;2.88;;;1.63;;
16862;SDS011;52193;48.216;-1.698;2023-07-13T13:42:13;1.90;;;1.70;;
16862;SDS011;52193;48.216;-1.698;2023-07-13T13:44:41;3.63;;;2.17;;
16862;SDS011;52193;48.216;-1.698;2023-07-13T13:47:15;2.65;;;1.70;;
16862;SDS011;52193;48.216;-1.698;2023-07-13T13:49:50;2.13;;;1.75;;
16862;SDS011;52193;48.216;-1.698;2023-07-13T13:52:17;1.98;;;1.70;;
16862;SDS011;52193;48.216;-1.698;2023-07-13T13:54:44;2.50;;;1.67;;
16862;SDS011;52193;48.216;-1.698;2023-07-13T13:57:11;2.20;;;1.90;;
16862;SDS011;52193;48.216;-1.698;2023-07-13T13:59:38;2.47;;;1.58;;
16862;SDS011;52193;48.216;-1.698;2023-07-13T14:02:09;4.32;;;1.80;;
16862;SDS011;52193;48.216;-1.698;2023-07-13T14:04:49;1.90;;;1.60;;
16862;SDS011;52193;48.216;-1.698;2023-07-13T14:07:18;3.05;;;2.03;;
16862;SDS011;52193;48.216;-1.698;2023-07-13T14:09:45;4.93;;;1.50;;
16862;SDS011;52193;48.216;-1.698;2023-07-13T14:12:12;2.25;;;1.48;;
16862;SDS011;52193;48.216;-1.698;2023-07-13T14:14:39;2.80;;;1.90;;
16862;SDS011;52193;48.216;-1.698;2023-07-13T14:17:09;2.47;;;1.70;;
16862;SDS011;52193;48.216;-1.698;2023-07-13T14:19:49;1.80;;;1.70;;
16862;SDS011;52193;48.216;-1.698;2023-07-13T14:22:21;2.90;;;1.75;;
16862;SDS011;52193;48.216;-1.698;2023-07-13T14:24:49;2.13;;;1.75;;
16862;SDS011;52193;48.216;-1.698;2023-07-13T14:27:16;3.72;;;2.00;;
16862;SDS011;52193;48.216;-1.698;2023-07-13T14:29:43;2.22;;;1.90;;
16862;SDS011;52193;48.216;-1.698;2023-07-13T14:32:10;2.45;;;1.65;;
16862;SDS011;52193;48.216;-1.698;2023-07-13T14:34:38;2.40;;;1.90;;
16862;SDS011;52193;48.216;-1.698;2023-07-13T14:37:08;2.83;;;2.10;;
16862;SDS011;52193;48.216;-1.698;2023-07-13T14:39:39;2.53;;;1.92;;
16862;SDS011;52193;48.216;-1.698;2023-07-13T14:42:08;2.70;;;2.00;;
16862;SDS011;52193;48.216;-1.698;2023-07-13T14:44:35;1.70;;;1.60;;
16862;SDS011;52193;48.216;-1.698;2023-07-13T14:47:04;1.40;;;1.40;;
16862;SDS011;52193;48.216;-1.698;2023-07-13T14:49:33;2.30;;;1.70;;
16862;SDS011;52193;48.216;-1.698;2023-07-13T14:52:05;2.15;;;1.95;;
16862;SDS011;52193;48.216;-1.698;2023-07-13T14:54:37;3.67;;;1.85;;
16862;SDS011;52193;48.216;-1.698;2023-07-13T14:57:08;3.33;;;2.10;;
16862;SDS011;52193;48.216;-1.698;2023-07-13T14:59:36;4.20;;;1.90;;